createdAt,value
2023-03-06T00:01:01.282Z,1.80
2023-03-06T00:03:28.437Z,1.80
2023-03-06T00:05:56.318Z,1.52
2023-03-06T00:08:23.847Z,1.33
2023-03-06T00:10:50.179Z,1.38
2023-03-06T00:13:17.597Z,1.58
2023-03-06T00:15:44.410Z,1.40
2023-03-06T00:18:10.903Z,1.40
2023-03-06T00:20:40.588Z,1.30
2023-03-06T00:23:07.916Z,1.63
2023-03-06T00:25:34.550Z,1.63
2023-03-06T00:28:00.917Z,1.20
2023-03-06T00:30:27.584Z,1.20
2023-03-06T00:32:54.066Z,1.40
2023-03-06T00:35:20.834Z,1.45
2023-03-06T00:37:47.382Z,1.50
2023-03-06T00:40:18.550Z,1.30
2023-03-06T00:42:45.596Z,1.67
2023-03-06T00:45:12.857Z,1.20
2023-03-06T00:47:39.936Z,1.10
2023-03-06T00:50:07.699Z,1.60
2023-03-06T00:52:34.295Z,1.48
2023-03-06T00:55:00.718Z,1.38
2023-03-06T00:57:27.169Z,1.30
2023-03-06T00:59:53.650Z,1.25
2023-03-06T01:02:20.101Z,1.20
2023-03-06T01:04:46.672Z,1.15
2023-03-06T01:07:13.043Z,1.20
2023-03-06T01:09:39.419Z,1.20
2023-03-06T01:12:06.154Z,1.23
2023-03-06T01:14:32.711Z,1.05
2023-03-06T01:16:59.116Z,1.48
2023-03-06T01:19:25.921Z,1.25
2023-03-06T01:21:52.309Z,1.47
2023-03-06T01:24:18.749Z,1.40
2023-03-06T01:26:45.098Z,1.38
2023-03-06T01:29:11.459Z,1.30
2023-03-06T01:31:37.880Z,1.38
2023-03-06T01:34:04.298Z,1.13
2023-03-06T01:36:30.923Z,1.17
2023-03-06T01:38:57.261Z,1.13
2023-03-06T01:41:24.623Z,1.63
2023-03-06T01:43:51.335Z,1.60
2023-03-06T01:46:24.738Z,1.33
2023-03-06T01:49:14.998Z,1.23
2023-03-06T01:51:52.538Z,1.80
2023-03-06T01:54:28.304Z,1.30
2023-03-06T01:57:18.848Z,1.30
2023-03-06T02:00:10.980Z,1.57
2023-03-06T02:02:39.363Z,1.30
2023-03-06T02:05:07.034Z,1.63
2023-03-06T02:07:34.681Z,1.33
2023-03-06T02:10:01.324Z,1.55
2023-03-06T02:12:27.951Z,1.40
2023-03-06T02:14:54.478Z,1.30
2023-03-06T02:17:22.523Z,1.17
2023-03-06T02:19:48.811Z,1.30
2023-03-06T02:22:15.233Z,1.50
2023-03-06T02:25:02.519Z,1.30
2023-03-06T02:27:29.009Z,1.40
2023-03-06T02:29:55.512Z,1.75
2023-03-06T02:32:21.947Z,1.25
2023-03-06T02:34:55.478Z,1.60
2023-03-06T02:37:23.020Z,1.40
2023-03-06T02:39:59.658Z,1.30
2023-03-06T02:42:27.903Z,1.48
2023-03-06T02:44:56.285Z,1.45
2023-03-06T02:47:23.122Z,1.65
2023-03-06T02:49:49.474Z,1.10
2023-03-06T02:52:15.751Z,1.42
2023-03-06T02:54:42.106Z,1.40
2023-03-06T02:57:08.852Z,1.20
2023-03-06T02:59:35.132Z,1.05
2023-03-06T03:02:01.536Z,0.90
2023-03-06T03:04:28.016Z,1.08
2023-03-06T03:06:54.364Z,1.10
2023-03-06T03:09:20.689Z,1.10
2023-03-06T03:11:47.120Z,1.25
2023-03-06T03:14:13.556Z,1.07
2023-03-06T03:16:39.906Z,0.98
2023-03-06T03:19:06.763Z,0.95
2023-03-06T03:21:33.072Z,1.20
2023-03-06T03:23:59.359Z,1.25
2023-03-06T03:26:25.782Z,0.83
2023-03-06T03:28:52.210Z,1.10
2023-03-06T03:31:18.609Z,1.20
2023-03-06T03:33:45.076Z,1.00
2023-03-06T03:36:11.501Z,1.17
2023-03-06T03:38:38.107Z,0.83
2023-03-06T03:41:05.192Z,1.08
2023-03-06T03:43:32.259Z,0.90
2023-03-06T03:45:59.727Z,0.90
2023-03-06T03:48:26.112Z,1.13
2023-03-06T03:50:52.472Z,0.80
2023-03-06T03:53:18.829Z,0.90
2023-03-06T03:55:47.950Z,1.20
2023-03-06T03:58:14.268Z,0.88
2023-03-06T04:00:40.586Z,1.00
2023-03-06T04:03:06.904Z,0.90
2023-03-06T04:05:33.300Z,0.90
2023-03-06T04:07:59.673Z,1.17
2023-03-06T04:10:25.990Z,0.85
2023-03-06T04:12:52.394Z,1.05
2023-03-06T04:15:18.895Z,1.23
2023-03-06T04:17:45.234Z,1.25
2023-03-06T04:20:11.879Z,1.40
2023-03-06T04:22:38.266Z,1.40
2023-03-06T04:25:05.067Z,1.23
2023-03-06T04:27:31.485Z,0.93
2023-03-06T04:29:57.759Z,1.23
2023-03-06T04:32:24.250Z,1.45
2023-03-06T04:34:50.728Z,1.40
2023-03-06T04:37:22.541Z,1.40
2023-03-06T04:39:49.382Z,1.13
2023-03-06T04:42:16.478Z,1.35
2023-03-06T04:44:42.973Z,1.25
2023-03-06T04:47:09.436Z,1.23
2023-03-06T04:49:35.935Z,1.38
2023-03-06T04:52:02.242Z,1.40
2023-03-06T04:54:28.669Z,1.10
2023-03-06T04:56:55.002Z,1.08
2023-03-06T04:59:21.406Z,0.93
2023-03-06T05:01:47.818Z,1.15
2023-03-06T05:04:14.276Z,1.00
2023-03-06T05:06:40.691Z,0.98
2023-03-06T05:09:07.175Z,1.20
2023-03-06T05:11:33.582Z,1.05
2023-03-06T05:13:59.881Z,1.23
2023-03-06T05:16:26.349Z,1.40
2023-03-06T05:18:52.762Z,1.10
2023-03-06T05:21:19.143Z,1.10
2023-03-06T05:23:45.526Z,1.15
2023-03-06T05:26:13.998Z,1.23
2023-03-06T05:28:41.268Z,1.07
2023-03-06T05:31:08.188Z,1.27
2023-03-06T05:33:35.733Z,1.25
2023-03-06T05:36:02.882Z,1.00
2023-03-06T05:38:29.335Z,1.17
2023-03-06T05:40:55.703Z,0.80
2023-03-06T05:43:22.285Z,0.98
2023-03-06T05:45:48.733Z,1.00
2023-03-06T05:48:15.089Z,0.90
2023-03-06T05:50:41.488Z,0.88
2023-03-06T05:53:07.830Z,0.80
2023-03-06T05:55:34.147Z,0.60
2023-03-06T05:58:00.527Z,0.70
2023-03-06T06:00:26.997Z,0.80
2023-03-06T06:02:53.410Z,0.80
2023-03-06T06:05:20.084Z,0.70
2023-03-06T06:07:46.458Z,0.80
2023-03-06T06:10:12.877Z,0.80
2023-03-06T06:12:39.447Z,0.70
2023-03-06T06:15:06.663Z,1.13
2023-03-06T06:17:33.131Z,0.70
2023-03-06T06:19:59.626Z,0.70
2023-03-06T06:22:26.065Z,0.60
2023-03-06T06:24:52.429Z,0.75
2023-03-06T06:27:18.819Z,0.68
2023-03-06T06:29:45.153Z,0.70
2023-03-06T06:32:11.547Z,0.80
2023-03-06T06:34:37.890Z,0.80
2023-03-06T06:37:04.299Z,0.70
2023-03-06T06:39:30.613Z,1.08
2023-03-06T06:42:14.587Z,0.87
2023-03-06T06:44:53.736Z,0.70
2023-03-06T06:47:26.012Z,1.00
2023-03-06T06:50:03.138Z,0.82
2023-03-06T06:52:30.562Z,0.70
2023-03-06T06:54:56.920Z,1.00
2023-03-06T06:57:23.399Z,0.70
2023-03-06T06:59:52.417Z,0.65
2023-03-06T07:02:20.162Z,0.90
2023-03-06T07:05:02.028Z,1.02
2023-03-06T07:07:30.059Z,0.80
2023-03-06T07:09:56.644Z,0.80
2023-03-06T07:12:23.042Z,0.70
2023-03-06T07:14:49.491Z,0.70
2023-03-06T07:17:15.874Z,1.10
2023-03-06T07:19:42.275Z,0.70
2023-03-06T07:22:08.955Z,0.90
2023-03-06T07:24:35.269Z,0.80
2023-03-06T07:27:01.703Z,0.60
2023-03-06T07:29:28.053Z,0.70
2023-03-06T07:31:54.370Z,1.00
2023-03-06T07:34:20.829Z,0.80
2023-03-06T07:36:47.246Z,0.90
2023-03-06T07:39:13.596Z,0.60
2023-03-06T07:41:40.051Z,0.93
2023-03-06T07:44:06.605Z,1.00
2023-03-06T07:46:33.073Z,1.08
2023-03-06T07:48:59.606Z,1.00
2023-03-06T07:51:25.974Z,0.75
2023-03-06T07:53:52.404Z,0.80
2023-03-06T07:56:18.938Z,0.80
2023-03-06T07:58:46.888Z,0.70
2023-03-06T08:01:19.240Z,0.73
2023-03-06T08:03:46.320Z,0.80
2023-03-06T08:06:21.948Z,0.80
2023-03-06T08:08:50.073Z,0.80
2023-03-06T08:11:19.177Z,0.90
2023-03-06T08:13:45.650Z,1.00
2023-03-06T08:16:12.238Z,0.80
2023-03-06T08:18:38.684Z,0.90
2023-03-06T08:21:09.911Z,0.97
2023-03-06T08:23:37.771Z,0.70
2023-03-06T08:26:07.001Z,0.93
2023-03-06T08:28:33.879Z,0.90
2023-03-06T08:31:08.828Z,1.10
2023-03-06T08:33:35.761Z,0.60
2023-03-06T08:36:02.548Z,0.80
2023-03-06T08:38:36.292Z,0.88
2023-03-06T08:41:02.847Z,1.10
2023-03-06T08:43:30.195Z,0.90
2023-03-06T08:45:58.210Z,0.80
2023-03-06T08:48:25.206Z,0.80
2023-03-06T08:50:52.197Z,0.88
2023-03-06T08:53:19.299Z,1.00
2023-03-06T08:55:45.976Z,1.00
2023-03-06T08:58:12.814Z,1.00
2023-03-06T09:00:39.510Z,1.08
2023-03-06T09:03:06.079Z,0.80
2023-03-06T09:05:32.704Z,1.00
2023-03-06T09:07:59.053Z,0.90
2023-03-06T09:10:26.672Z,0.80
2023-03-06T09:12:55.033Z,0.80
2023-03-06T09:15:22.997Z,0.75
2023-03-06T09:17:49.721Z,0.75
2023-03-06T09:20:16.686Z,0.77
2023-03-06T09:22:43.260Z,0.90
2023-03-06T09:25:10.264Z,0.77
2023-03-06T09:27:36.642Z,0.70
2023-03-06T09:30:03.291Z,0.80
2023-03-06T09:32:29.705Z,0.60
2023-03-06T09:34:56.105Z,0.80
2023-03-06T09:37:22.791Z,0.90
2023-03-06T09:39:49.111Z,0.70
2023-03-06T09:42:18.595Z,0.88
2023-03-06T09:44:51.439Z,1.15
2023-03-06T09:47:23.450Z,0.80
2023-03-06T09:49:55.682Z,0.60
2023-03-06T09:52:47.118Z,0.70
2023-03-06T09:55:20.134Z,0.80
2023-03-06T09:57:54.542Z,0.75
2023-03-06T10:00:38.256Z,0.60
2023-03-06T10:03:16.992Z,0.65
2023-03-06T10:05:50.666Z,0.52
2023-03-06T10:08:51.048Z,0.40
2023-03-06T10:11:24.876Z,0.70
2023-03-06T10:14:12.322Z,0.50
2023-03-06T10:16:42.183Z,0.65
2023-03-06T10:19:18.557Z,0.60
2023-03-06T10:22:07.156Z,0.40
2023-03-06T10:24:45.723Z,0.60
2023-03-06T10:27:22.467Z,0.70
2023-03-06T10:30:30.878Z,0.50
2023-03-06T10:33:09.485Z,0.52
2023-03-06T10:35:53.786Z,0.60
2023-03-06T10:38:46.979Z,0.50
2023-03-06T10:41:13.294Z,0.50
2023-03-06T10:43:42.918Z,0.65
2023-03-06T10:46:11.439Z,0.60
2023-03-06T10:48:41.691Z,0.60
2023-03-06T10:51:19.279Z,0.63
2023-03-06T10:53:56.732Z,0.50
2023-03-06T10:56:43.782Z,0.55
2023-03-06T10:59:15.904Z,0.68
2023-03-06T11:01:45.904Z,0.60
2023-03-06T11:04:28.663Z,0.60
2023-03-06T11:07:16.729Z,0.70
2023-03-06T11:10:15.701Z,0.70
2023-03-06T11:12:43.535Z,0.70
2023-03-06T11:15:19.923Z,0.73
2023-03-06T11:17:55.342Z,0.90
2023-03-06T11:20:51.470Z,0.80
2023-03-06T11:23:24.565Z,1.10
2023-03-06T11:25:59.738Z,0.70
2023-03-06T11:28:32.433Z,0.93
2023-03-06T11:31:13.793Z,1.00
2023-03-06T11:33:51.245Z,0.90
2023-03-06T11:36:36.956Z,0.75
2023-03-06T11:39:14.516Z,1.10
2023-03-06T11:42:05.439Z,0.90
2023-03-06T11:45:09.620Z,1.15
2023-03-06T11:47:52.536Z,0.97
2023-03-06T11:50:26.348Z,1.02
2023-03-06T11:53:05.301Z,1.05
2023-03-06T11:56:09.270Z,1.50
2023-03-06T11:59:16.154Z,1.00
2023-03-06T12:01:48.201Z,1.30
2023-03-06T12:04:51.886Z,1.20
2023-03-06T12:07:25.314Z,1.27
2023-03-06T12:10:02.650Z,1.50
2023-03-06T12:13:11.356Z,1.40
2023-03-06T12:15:55.963Z,1.50
2023-03-06T12:18:33.303Z,1.45
2023-03-06T12:21:26.841Z,1.70
2023-03-06T12:24:32.582Z,1.50
2023-03-06T12:27:23.073Z,1.98
2023-03-06T12:29:59.237Z,2.00
2023-03-06T12:32:42.737Z,1.90
2023-03-06T12:35:30.433Z,2.10
2023-03-06T12:38:15.040Z,1.95
2023-03-06T12:40:44.476Z,1.90
2023-03-06T12:43:16.633Z,1.73
2023-03-06T12:45:43.205Z,1.92
2023-03-06T12:48:26.450Z,2.55
2023-03-06T12:50:53.661Z,2.40
2023-03-06T12:53:33.995Z,2.95
2023-03-06T12:56:02.393Z,3.17
2023-03-06T12:58:28.692Z,3.20
2023-03-06T13:01:04.709Z,3.40
2023-03-06T13:03:47.462Z,3.05
2023-03-06T13:06:44.977Z,3.05
2023-03-06T13:09:50.996Z,3.27
2023-03-06T13:12:41.796Z,3.97
2023-03-06T13:15:46.411Z,3.72
2023-03-06T13:18:21.942Z,4.15
2023-03-06T13:20:52.939Z,4.22
2023-03-06T13:23:34.511Z,3.70
2023-03-06T13:26:09.591Z,3.78
2023-03-06T13:28:43.556Z,4.05
2023-03-06T13:31:21.353Z,4.38
2023-03-06T13:33:59.312Z,5.28
2023-03-06T13:36:39.165Z,4.73
2023-03-06T13:39:10.666Z,5.80
2023-03-06T13:41:41.702Z,4.95
2023-03-06T13:44:27.884Z,4.50
2023-03-06T13:47:20.176Z,4.95
2023-03-06T13:49:48.418Z,4.40
2023-03-06T13:52:42.806Z,4.75
2023-03-06T13:55:30.418Z,5.47
2023-03-06T13:58:22.761Z,5.60
2023-03-06T14:01:20.348Z,5.60
2023-03-06T14:04:08.251Z,5.30
2023-03-06T14:06:34.523Z,5.30
2023-03-06T14:09:04.259Z,4.97
2023-03-06T14:11:32.384Z,5.15
2023-03-06T14:13:59.415Z,4.78
2023-03-06T14:16:47.602Z,4.70
2023-03-06T14:19:18.698Z,3.75
2023-03-06T14:21:45.467Z,3.30
2023-03-06T14:24:17.138Z,3.28
2023-03-06T14:26:48.032Z,3.33
2023-03-06T14:29:23.329Z,3.17
2023-03-06T14:31:52.534Z,3.30
2023-03-06T14:34:26.630Z,3.47
2023-03-06T14:36:59.988Z,3.78
2023-03-06T14:39:36.815Z,3.75
2023-03-06T14:42:08.795Z,3.37
2023-03-06T14:44:35.263Z,3.58
2023-03-06T14:47:22.633Z,3.28
2023-03-06T14:50:18.669Z,3.13
2023-03-06T14:52:45.738Z,3.63
2023-03-06T14:55:18.866Z,3.60
2023-03-06T14:57:51.879Z,3.60
2023-03-06T15:00:22.379Z,4.30
2023-03-06T15:02:51.748Z,3.65
2023-03-06T15:05:29.247Z,3.85
2023-03-06T15:08:01.672Z,3.80
2023-03-06T15:10:33.183Z,3.40
2023-03-06T15:13:23.747Z,3.40
2023-03-06T15:16:01.515Z,3.40
2023-03-06T15:18:32.447Z,3.63
2023-03-06T15:21:18.772Z,3.63
2023-03-06T15:23:53.285Z,4.10
2023-03-06T15:26:34.391Z,4.35
2023-03-06T15:29:10.322Z,4.03
2023-03-06T15:31:42.248Z,4.97
2023-03-06T15:34:08.649Z,4.50
2023-03-06T15:36:37.723Z,5.28
2023-03-06T15:39:30.719Z,4.63
2023-03-06T15:42:16.124Z,3.88
2023-03-06T15:44:42.620Z,3.88
2023-03-06T15:47:11.351Z,4.23
2023-03-06T15:49:38.780Z,4.53
2023-03-06T15:52:06.529Z,4.10
2023-03-06T15:54:33.172Z,3.38
2023-03-06T15:56:59.753Z,3.80
2023-03-06T15:59:29.087Z,3.17
2023-03-06T16:01:55.396Z,3.17
2023-03-06T16:04:21.851Z,3.40
2023-03-06T16:06:48.246Z,3.28
2023-03-06T16:09:14.896Z,3.53
2023-03-06T16:11:44.299Z,3.37
2023-03-06T16:14:22.906Z,4.10
2023-03-06T16:16:51.365Z,4.32
2023-03-06T16:19:27.423Z,3.40
2023-03-06T16:21:55.373Z,3.67
2023-03-06T16:24:21.795Z,3.10
2023-03-06T16:26:50.874Z,3.80
2023-03-06T16:29:19.315Z,3.10
2023-03-06T16:31:46.042Z,3.50
2023-03-06T16:34:13.066Z,3.72
2023-03-06T16:36:39.696Z,3.10
2023-03-06T16:39:06.688Z,3.42
2023-03-06T16:41:33.043Z,4.45
2023-03-06T16:43:59.361Z,3.53
2023-03-06T16:46:25.863Z,5.13
2023-03-06T16:48:52.680Z,4.23
2023-03-06T16:51:21.626Z,5.03
2023-03-06T16:53:48.559Z,4.85
2023-03-06T16:56:17.841Z,6.22
2023-03-06T16:58:44.362Z,7.25
2023-03-06T17:01:14.666Z,6.93
2023-03-06T17:03:41.135Z,7.00
2023-03-06T17:06:16.128Z,7.22
2023-03-06T17:08:43.248Z,7.07
2023-03-06T17:11:09.670Z,6.78
2023-03-06T17:13:36.101Z,6.77
2023-03-06T17:16:02.836Z,6.15
2023-03-06T17:18:30.018Z,7.97
2023-03-06T17:20:57.239Z,7.57
2023-03-06T17:23:27.284Z,6.57
2023-03-06T17:26:22.191Z,7.37
2023-03-06T17:28:48.657Z,6.40
2023-03-06T17:31:21.103Z,6.85
2023-03-06T17:33:48.351Z,6.55
2023-03-06T17:36:16.738Z,8.98
2023-03-06T17:38:43.701Z,6.53
2023-03-06T17:41:12.113Z,6.80
2023-03-06T17:43:39.268Z,10.02
2023-03-06T17:46:07.793Z,8.90
2023-03-06T17:48:35.147Z,7.60
2023-03-06T17:51:01.883Z,8.53
2023-03-06T17:53:28.551Z,8.95
2023-03-06T17:55:56.028Z,8.23
2023-03-06T17:58:22.427Z,8.32
2023-03-06T18:00:48.767Z,12.25
2023-03-06T18:03:15.631Z,10.30
2023-03-06T18:05:42.036Z,8.75
2023-03-06T18:08:08.603Z,9.38
2023-03-06T18:10:35.090Z,10.05
2023-03-06T18:13:01.490Z,10.90
2023-03-06T18:15:27.847Z,9.33
2023-03-06T18:17:54.261Z,10.25
2023-03-06T18:20:20.624Z,9.65
2023-03-06T18:22:46.984Z,10.50
2023-03-06T18:25:13.256Z,10.18
2023-03-06T18:27:39.619Z,11.03
2023-03-06T18:30:06.396Z,10.68
2023-03-06T18:32:32.866Z,10.32
2023-03-06T18:34:59.726Z,12.77
2023-03-06T18:37:26.154Z,11.77
2023-03-06T18:39:52.588Z,11.33
2023-03-06T18:42:18.997Z,13.23
2023-03-06T18:44:45.411Z,12.75
2023-03-06T18:47:11.759Z,15.45
2023-03-06T18:49:40.102Z,10.68
2023-03-06T18:52:07.095Z,10.87
2023-03-06T18:54:33.460Z,13.57
2023-03-06T18:56:59.868Z,12.48
2023-03-06T18:59:26.335Z,10.85
2023-03-06T19:01:52.772Z,13.20
2023-03-06T19:04:19.245Z,11.93
2023-03-06T19:06:46.097Z,10.60
2023-03-06T19:09:12.523Z,12.45
2023-03-06T19:11:38.942Z,12.60
2023-03-06T19:14:05.411Z,10.98
2023-03-06T19:16:31.809Z,14.43
2023-03-06T19:18:59.075Z,11.77
2023-03-06T19:21:27.211Z,12.40
2023-03-06T19:23:54.863Z,12.60
2023-03-06T19:26:22.135Z,13.95
2023-03-06T19:28:49.121Z,14.93
2023-03-06T19:31:21.080Z,11.82
2023-03-06T19:33:49.467Z,14.65
2023-03-06T19:36:17.834Z,12.65
2023-03-06T19:38:44.620Z,12.98
2023-03-06T19:41:12.517Z,13.10
2023-03-06T19:43:40.913Z,12.50
2023-03-06T19:46:12.251Z,13.57
2023-03-06T19:48:39.224Z,11.85
2023-03-06T19:51:06.339Z,11.65
2023-03-06T19:53:33.941Z,12.63
2023-03-06T19:56:05.237Z,11.82
2023-03-06T19:58:31.804Z,13.23
2023-03-06T20:01:06.903Z,14.85
2023-03-06T20:03:33.450Z,11.07
2023-03-06T20:06:00.112Z,12.83
2023-03-06T20:08:26.566Z,13.73
2023-03-06T20:10:52.907Z,13.82
2023-03-06T20:13:19.259Z,13.27
2023-03-06T20:15:45.729Z,17.60
2023-03-06T20:18:12.150Z,13.77
2023-03-06T20:20:38.525Z,16.20
2023-03-06T20:23:04.918Z,15.63
2023-03-06T20:25:31.689Z,14.15
2023-03-06T20:27:57.993Z,15.77
2023-03-06T20:30:26.408Z,14.43
2023-03-06T20:32:55.806Z,14.50
2023-03-06T20:35:22.484Z,13.93
2023-03-06T20:37:48.896Z,14.63
2023-03-06T20:40:15.361Z,13.80
2023-03-06T20:42:41.753Z,14.00
2023-03-06T20:45:08.643Z,14.65
2023-03-06T20:47:35.021Z,15.00
2023-03-06T20:50:01.481Z,15.13
2023-03-06T20:52:27.826Z,12.50
2023-03-06T20:54:54.296Z,13.07
2023-03-06T20:57:20.703Z,13.63
2023-03-06T20:59:47.041Z,14.63
2023-03-06T21:02:13.540Z,12.32
2023-03-06T21:04:39.912Z,16.58
2023-03-06T21:07:07.126Z,15.00
2023-03-06T21:09:33.543Z,11.88
2023-03-06T21:12:00.035Z,12.73
2023-03-06T21:14:26.434Z,12.13
2023-03-06T21:16:52.887Z,11.30
2023-03-06T21:19:20.127Z,11.57
2023-03-06T21:21:46.524Z,10.68
2023-03-06T21:24:12.962Z,12.95
2023-03-06T21:26:39.875Z,11.70
2023-03-06T21:29:06.214Z,10.52
2023-03-06T21:31:32.709Z,9.67
2023-03-06T21:33:59.350Z,9.65
2023-03-06T21:36:26.213Z,8.88
2023-03-06T21:38:53.431Z,6.18
2023-03-06T21:41:25.675Z,4.07
2023-03-06T21:44:00.289Z,3.40
2023-03-06T21:46:28.143Z,4.93
2023-03-06T21:48:56.174Z,4.43
2023-03-06T21:51:23.411Z,3.20
2023-03-06T21:53:51.294Z,2.67
2023-03-06T21:56:19.946Z,2.40
2023-03-06T21:58:46.823Z,2.00
2023-03-06T22:01:18.124Z,1.92
2023-03-06T22:03:44.769Z,3.58
2023-03-06T22:06:13.840Z,3.28
2023-03-06T22:08:41.251Z,2.53
2023-03-06T22:11:13.468Z,2.53
2023-03-06T22:13:40.264Z,2.97
2023-03-06T22:16:07.788Z,1.63
2023-03-06T22:18:34.994Z,3.30
2023-03-06T22:21:10.476Z,2.73
2023-03-06T22:23:37.168Z,1.67
2023-03-06T22:26:21.393Z,1.85
2023-03-06T22:28:54.920Z,1.90
2023-03-06T22:31:25.159Z,1.58
2023-03-06T22:33:54.850Z,2.07
2023-03-06T22:36:22.539Z,1.98
2023-03-06T22:38:49.556Z,1.92
2023-03-06T22:41:17.742Z,1.67
2023-03-06T22:43:44.231Z,1.80
2023-03-06T22:46:13.777Z,1.30
2023-03-06T22:48:40.952Z,1.60
2023-03-06T22:51:16.524Z,2.05
2023-03-06T22:53:44.474Z,1.83
2023-03-06T22:56:13.950Z,1.60
2023-03-06T22:58:40.735Z,1.97
2023-03-06T23:01:09.089Z,1.55
2023-03-06T23:03:37.436Z,1.55
2023-03-06T23:06:11.950Z,2.20
2023-03-06T23:08:39.344Z,1.92
2023-03-06T23:11:13.588Z,1.53
2023-03-06T23:13:40.121Z,1.70
2023-03-06T23:16:07.977Z,2.03
2023-03-06T23:18:36.159Z,1.50
2023-03-06T23:21:14.757Z,1.48
2023-03-06T23:23:41.714Z,1.60
2023-03-06T23:26:10.409Z,1.88
2023-03-06T23:28:36.816Z,1.50
2023-03-06T23:31:07.951Z,1.70
2023-03-06T23:33:34.641Z,1.35
2023-03-06T23:36:09.920Z,1.60
2023-03-06T23:38:36.726Z,1.40
2023-03-06T23:41:08.089Z,1.50
2023-03-06T23:43:34.795Z,1.60
2023-03-06T23:46:01.339Z,1.40
2023-03-06T23:48:28.441Z,1.90
2023-03-06T23:51:16.105Z,1.63
2023-03-06T23:53:55.876Z,1.65
2023-03-06T23:56:23.441Z,1.77
2023-03-06T23:58:49.809Z,1.73
